sensor_id;sensor_type;location;lat;lon;timestamp;temperature;humidity
23715;DHT22;12036;50.858;4.472;2023-03-01T00:01:16;0.70;99.90
23715;DHT22;12036;50.858;4.472;2023-03-01T00:03:42;0.60;99.90
23715;DHT22;12036;50.858;4.472;2023-03-01T00:06:09;0.60;99.90
23715;DHT22;12036;50.858;4.472;2023-03-01T00:08:35;0.60;99.90
23715;DHT22;12036;50.858;4.472;2023-03-01T00:11:06;0.60;99.90
23715;DHT22;12036;50.858;4.472;2023-03-01T00:13:33;0.50;99.90
23715;DHT22;12036;50.858;4.472;2023-03-01T00:15:59;0.50;99.90
23715;DHT22;12036;50.858;4.472;2023-03-01T00:18:26;0.40;99.90
23715;DHT22;12036;50.858;4.472;2023-03-01T00:20:53;0.30;99.90
23715;DHT22;12036;50.858;4.472;2023-03-01T00:23:19;0.30;99.90
23715;DHT22;12036;50.858;4.472;2023-03-01T00:25:45;0.20;99.90
23715;DHT22;12036;50.858;4.472;2023-03-01T00:28:11;0.20;99.90
23715;DHT22;12036;50.858;4.472;2023-03-01T00:30:36;0.20;99.90
23715;DHT22;12036;50.858;4.472;2023-03-01T00:33:02;0.10;99.90
23715;DHT22;12036;50.858;4.472;2023-03-01T00:35:28;0.10;99.90
23715;DHT22;12036;50.858;4.472;2023-03-01T00:37:53;0.00;99.90
23715;DHT22;12036;50.858;4.472;2023-03-01T00:40:27;0.00;99.90
23715;DHT22;12036;50.858;4.472;2023-03-01T00:42:53;-0.10;99.90
23715;DHT22;12036;50.858;4.472;2023-03-01T00:45:19;0.00;99.90
23715;DHT22;12036;50.858;4.472;2023-03-01T00:47:45;0.00;99.90
23715;DHT22;12036;50.858;4.472;2023-03-01T00:50:11;-0.10;99.90
23715;DHT22;12036;50.858;4.472;2023-03-01T00:52:37;-0.10;99.90
23715;DHT22;12036;50.858;4.472;2023-03-01T00:55:04;-0.10;99.90
23715;DHT22;12036;50.858;4.472;2023-03-01T00:57:30;-0.20;99.90
23715;DHT22;12036;50.858;4.472;2023-03-01T00:59:56;-0.20;99.90
23715;DHT22;12036;50.858;4.472;2023-03-01T01:02:22;-0.20;99.90
23715;DHT22;12036;50.858;4.472;2023-03-01T01:04:47;-0.30;99.90
23715;DHT22;12036;50.858;4.472;2023-03-01T01:07:14;-0.30;99.90
23715;DHT22;12036;50.858;4.472;2023-03-01T01:09:40;-0.30;99.90
23715;DHT22;12036;50.858;4.472;2023-03-01T01:12:06;-0.30;99.90
23715;DHT22;12036;50.858;4.472;2023-03-01T01:14:31;-0.40;99.90
23715;DHT22;12036;50.858;4.472;2023-03-01T01:16:57;-0.40;99.90
23715;DHT22;12036;50.858;4.472;2023-03-01T01:19:24;-0.30;99.90
23715;DHT22;12036;50.858;4.472;2023-03-01T01:21:49;-0.40;99.90
23715;DHT22;12036;50.858;4.472;2023-03-01T01:24:16;-0.30;99.90
23715;DHT22;12036;50.858;4.472;2023-03-01T01:26:42;-0.30;99.90
23715;DHT22;12036;50.858;4.472;2023-03-01T01:29:08;-0.40;99.90
23715;DHT22;12036;50.858;4.472;2023-03-01T01:31:36;-0.40;99.90
23715;DHT22;12036;50.858;4.472;2023-03-01T01:34:03;-0.30;99.90
23715;DHT22;12036;50.858;4.472;2023-03-01T01:36:29;-0.30;99.90
23715;DHT22;12036;50.858;4.472;2023-03-01T01:38:55;-0.30;99.90
23715;DHT22;12036;50.858;4.472;2023-03-01T01:41:22;-0.30;99.90
23715;DHT22;12036;50.858;4.472;2023-03-01T01:44:08;-0.30;99.90
23715;DHT22;12036;50.858;4.472;2023-03-01T01:46:39;-0.30;99.90
23715;DHT22;12036;50.858;4.472;2023-03-01T01:49:12;-0.30;99.90
23715;DHT22;12036;50.858;4.472;2023-03-01T01:51:41;-0.40;99.90
23715;DHT22;12036;50.858;4.472;2023-03-01T01:54:22;-0.30;99.90
23715;DHT22;12036;50.858;4.472;2023-03-01T01:57:00;-0.30;99.90
23715;DHT22;12036;50.858;4.472;2023-03-01T01:59:28;-0.30;99.90
23715;DHT22;12036;50.858;4.472;2023-03-01T02:01:56;-0.30;99.90
23715;DHT22;12036;50.858;4.472;2023-03-01T02:04:24;-0.30;99.90
23715;DHT22;12036;50.858;4.472;2023-03-01T02:07:17;-0.30;99.90
23715;DHT22;12036;50.858;4.472;2023-03-01T02:09:47;-0.30;99.90
23715;DHT22;12036;50.858;4.472;2023-03-01T02:12:15;-0.30;99.90
23715;DHT22;12036;50.858;4.472;2023-03-01T02:14:42;-0.30;99.90
23715;DHT22;12036;50.858;4.472;2023-03-01T02:17:10;-0.30;99.90
23715;DHT22;12036;50.858;4.472;2023-03-01T02:22:50;-0.40;99.90
23715;DHT22;12036;50.858;4.472;2023-03-01T02:30:26;-0.50;99.90
23715;DHT22;12036;50.858;4.472;2023-03-01T02:32:54;-0.60;99.90
23715;DHT22;12036;50.858;4.472;2023-03-01T02:35:33;-0.60;99.90
23715;DHT22;12036;50.858;4.472;2023-03-01T02:38:00;-0.70;99.90
23715;DHT22;12036;50.858;4.472;2023-03-01T02:40:29;-0.70;99.90
23715;DHT22;12036;50.858;4.472;2023-03-01T02:42:57;-0.70;99.90
23715;DHT22;12036;50.858;4.472;2023-03-01T02:45:24;-0.70;99.90
23715;DHT22;12036;50.858;4.472;2023-03-01T02:47:52;-0.80;99.90
23715;DHT22;12036;50.858;4.472;2023-03-01T02:53:10;-0.70;99.90
23715;DHT22;12036;50.858;4.472;2023-03-01T02:55:38;-0.80;99.90
23715;DHT22;12036;50.858;4.472;2023-03-01T02:58:04;-0.80;99.90
23715;DHT22;12036;50.858;4.472;2023-03-01T03:00:35;-0.80;99.90
23715;DHT22;12036;50.858;4.472;2023-03-01T03:03:05;-0.90;99.90
23715;DHT22;12036;50.858;4.472;2023-03-01T03:05:31;-0.90;99.90
23715;DHT22;12036;50.858;4.472;2023-03-01T03:07:59;-0.90;99.90
23715;DHT22;12036;50.858;4.472;2023-03-01T03:10:27;-0.90;99.90
23715;DHT22;12036;50.858;4.472;2023-03-01T03:12:56;-1.00;99.90
23715;DHT22;12036;50.858;4.472;2023-03-01T03:15:23;-1.00;99.90
23715;DHT22;12036;50.858;4.472;2023-03-01T03:17:50;-1.00;99.90
23715;DHT22;12036;50.858;4.472;2023-03-01T03:20:17;-1.10;99.90
23715;DHT22;12036;50.858;4.472;2023-03-01T03:22:48;-1.10;99.90
23715;DHT22;12036;50.858;4.472;2023-03-01T03:25:15;-1.10;99.90
23715;DHT22;12036;50.858;4.472;2023-03-01T03:27:42;-1.20;99.90
23715;DHT22;12036;50.858;4.472;2023-03-01T03:30:11;-1.20;99.90
23715;DHT22;12036;50.858;4.472;2023-03-01T03:32:41;-1.20;99.90
23715;DHT22;12036;50.858;4.472;2023-03-01T03:35:09;-1.20;99.90
23715;DHT22;12036;50.858;4.472;2023-03-01T03:37:40;-1.20;99.90
23715;DHT22;12036;50.858;4.472;2023-03-01T03:40:24;-1.20;99.90
23715;DHT22;12036;50.858;4.472;2023-03-01T03:42:50;-1.20;99.90
23715;DHT22;12036;50.858;4.472;2023-03-01T03:45:17;-1.20;99.90
23715;DHT22;12036;50.858;4.472;2023-03-01T03:47:43;-1.10;99.90
23715;DHT22;12036;50.858;4.472;2023-03-01T03:50:14;-1.10;99.90
23715;DHT22;12036;50.858;4.472;2023-03-01T03:52:40;-1.00;99.90
23715;DHT22;12036;50.858;4.472;2023-03-01T03:55:07;-1.00;99.90
23715;DHT22;12036;50.858;4.472;2023-03-01T03:57:40;-1.00;99.90
23715;DHT22;12036;50.858;4.472;2023-03-01T04:00:08;-0.90;99.90
23715;DHT22;12036;50.858;4.472;2023-03-01T04:02:41;-1.00;99.90
23715;DHT22;12036;50.858;4.472;2023-03-01T04:05:08;-0.90;99.90
23715;DHT22;12036;50.858;4.472;2023-03-01T04:07:38;-0.90;99.90
23715;DHT22;12036;50.858;4.472;2023-03-01T04:10:12;-0.90;99.90
23715;DHT22;12036;50.858;4.472;2023-03-01T04:12:38;-0.90;99.90
23715;DHT22;12036;50.858;4.472;2023-03-01T04:15:05;-0.90;99.90
23715;DHT22;12036;50.858;4.472;2023-03-01T04:17:47;-0.90;99.90
23715;DHT22;12036;50.858;4.472;2023-03-01T04:20:15;-0.90;99.90
23715;DHT22;12036;50.858;4.472;2023-03-01T04:22:43;-0.90;99.90
23715;DHT22;12036;50.858;4.472;2023-03-01T04:25:12;-0.90;99.90
23715;DHT22;12036;50.858;4.472;2023-03-01T04:27:40;-0.90;99.90
23715;DHT22;12036;50.858;4.472;2023-03-01T04:30:07;-0.90;99.90
23715;DHT22;12036;50.858;4.472;2023-03-01T04:32:33;-1.00;99.90
23715;DHT22;12036;50.858;4.472;2023-03-01T04:34:59;-1.00;99.90
23715;DHT22;12036;50.858;4.472;2023-03-01T04:37:25;-1.00;99.90
23715;DHT22;12036;50.858;4.472;2023-03-01T04:39:51;-1.00;99.90
23715;DHT22;12036;50.858;4.472;2023-03-01T04:42:17;-1.00;99.90
23715;DHT22;12036;50.858;4.472;2023-03-01T04:44:43;-1.00;99.90
23715;DHT22;12036;50.858;4.472;2023-03-01T04:47:09;-1.00;99.90
23715;DHT22;12036;50.858;4.472;2023-03-01T04:49:35;-1.00;99.90
23715;DHT22;12036;50.858;4.472;2023-03-01T04:52:01;-1.00;99.90
23715;DHT22;12036;50.858;4.472;2023-03-01T04:54:28;-1.00;99.90
23715;DHT22;12036;50.858;4.472;2023-03-01T04:56:54;-0.90;99.90
23715;DHT22;12036;50.858;4.472;2023-03-01T04:59:20;-0.90;99.90
23715;DHT22;12036;50.858;4.472;2023-03-01T05:01:48;-0.80;99.90
23715;DHT22;12036;50.858;4.472;2023-03-01T05:04:14;-0.90;99.90
23715;DHT22;12036;50.858;4.472;2023-03-01T05:06:40;-0.90;99.90
23715;DHT22;12036;50.858;4.472;2023-03-01T05:09:06;-0.80;99.90
23715;DHT22;12036;50.858;4.472;2023-03-01T05:11:32;-0.80;99.90
23715;DHT22;12036;50.858;4.472;2023-03-01T05:14:05;-0.80;99.90
23715;DHT22;12036;50.858;4.472;2023-03-01T05:16:31;-0.90;99.90
23715;DHT22;12036;50.858;4.472;2023-03-01T05:18:58;-0.80;99.90
23715;DHT22;12036;50.858;4.472;2023-03-01T05:21:24;-0.80;99.90
23715;DHT22;12036;50.858;4.472;2023-03-01T05:23:51;-0.90;99.90
23715;DHT22;12036;50.858;4.472;2023-03-01T05:26:18;-0.90;99.90
23715;DHT22;12036;50.858;4.472;2023-03-01T05:28:45;-0.90;99.90
23715;DHT22;12036;50.858;4.472;2023-03-01T05:31:10;-0.90;99.90
23715;DHT22;12036;50.858;4.472;2023-03-01T05:33:37;-0.90;99.90
23715;DHT22;12036;50.858;4.472;2023-03-01T05:36:04;-0.80;99.90
23715;DHT22;12036;50.858;4.472;2023-03-01T05:38:30;-0.90;99.90
23715;DHT22;12036;50.858;4.472;2023-03-01T05:40:56;-0.90;99.90
23715;DHT22;12036;50.858;4.472;2023-03-01T05:43:21;-0.90;99.90
23715;DHT22;12036;50.858;4.472;2023-03-01T05:45:47;-0.90;99.90
23715;DHT22;12036;50.858;4.472;2023-03-01T05:48:13;-0.80;99.90
23715;DHT22;12036;50.858;4.472;2023-03-01T05:50:43;-0.70;99.90
23715;DHT22;12036;50.858;4.472;2023-03-01T05:53:12;-0.80;99.90
23715;DHT22;12036;50.858;4.472;2023-03-01T05:55:39;-0.80;99.90
23715;DHT22;12036;50.858;4.472;2023-03-01T05:58:07;-0.80;99.90
23715;DHT22;12036;50.858;4.472;2023-03-01T06:00:33;-0.90;99.90
23715;DHT22;12036;50.858;4.472;2023-03-01T06:03:00;-0.90;99.90
23715;DHT22;12036;50.858;4.472;2023-03-01T06:05:26;-0.80;99.90
23715;DHT22;12036;50.858;4.472;2023-03-01T06:07:52;-0.90;99.90
23715;DHT22;12036;50.858;4.472;2023-03-01T06:10:19;-0.90;99.90
23715;DHT22;12036;50.858;4.472;2023-03-01T06:12:45;-0.90;99.90
23715;DHT22;12036;50.858;4.472;2023-03-01T06:15:13;-0.90;99.90
23715;DHT22;12036;50.858;4.472;2023-03-01T06:17:40;-1.00;99.90
23715;DHT22;12036;50.858;4.472;2023-03-01T06:20:10;-1.00;99.90
23715;DHT22;12036;50.858;4.472;2023-03-01T06:22:36;-1.00;99.90
23715;DHT22;12036;50.858;4.472;2023-03-01T06:25:02;-1.00;99.90
23715;DHT22;12036;50.858;4.472;2023-03-01T06:27:28;-1.00;99.90
23715;DHT22;12036;50.858;4.472;2023-03-01T06:29:54;-0.80;99.90
23715;DHT22;12036;50.858;4.472;2023-03-01T06:32:19;-0.70;99.90
23715;DHT22;12036;50.858;4.472;2023-03-01T06:34:45;-0.70;99.90
23715;DHT22;12036;50.858;4.472;2023-03-01T06:37:11;-0.70;99.90
23715;DHT22;12036;50.858;4.472;2023-03-01T06:39:37;-0.70;99.90
23715;DHT22;12036;50.858;4.472;2023-03-01T06:42:02;-0.80;99.90
23715;DHT22;12036;50.858;4.472;2023-03-01T06:44:28;-0.90;99.90
23715;DHT22;12036;50.858;4.472;2023-03-01T06:46:54;-0.90;99.90
23715;DHT22;12036;50.858;4.472;2023-03-01T06:49:20;-1.00;99.90
23715;DHT22;12036;50.858;4.472;2023-03-01T06:51:46;-1.00;99.90
23715;DHT22;12036;50.858;4.472;2023-03-01T06:54:12;-1.00;99.90
23715;DHT22;12036;50.858;4.472;2023-03-01T06:56:38;-0.90;99.90
23715;DHT22;12036;50.858;4.472;2023-03-01T06:59:04;-0.90;99.90
23715;DHT22;12036;50.858;4.472;2023-03-01T07:01:30;-0.90;99.90
23715;DHT22;12036;50.858;4.472;2023-03-01T07:03:56;-0.80;99.90
23715;DHT22;12036;50.858;4.472;2023-03-01T07:06:22;-0.70;99.90
23715;DHT22;12036;50.858;4.472;2023-03-01T07:08:48;-0.80;99.90
23715;DHT22;12036;50.858;4.472;2023-03-01T07:11:14;-0.70;99.90
23715;DHT22;12036;50.858;4.472;2023-03-01T07:13:40;-0.70;99.90
23715;DHT22;12036;50.858;4.472;2023-03-01T07:16:06;-0.60;99.90
23715;DHT22;12036;50.858;4.472;2023-03-01T07:18:32;-0.60;99.90
23715;DHT22;12036;50.858;4.472;2023-03-01T07:20:58;-0.50;99.90
23715;DHT22;12036;50.858;4.472;2023-03-01T07:23:24;-0.40;99.90
23715;DHT22;12036;50.858;4.472;2023-03-01T07:25:55;-0.30;99.90
23715;DHT22;12036;50.858;4.472;2023-03-01T07:28:24;-0.20;99.90
23715;DHT22;12036;50.858;4.472;2023-03-01T07:30:50;-0.20;99.90
23715;DHT22;12036;50.858;4.472;2023-03-01T07:33:21;-0.20;99.90
23715;DHT22;12036;50.858;4.472;2023-03-01T07:35:47;-0.20;99.90
23715;DHT22;12036;50.858;4.472;2023-03-01T07:38:13;-0.20;99.90
23715;DHT22;12036;50.858;4.472;2023-03-01T07:40:38;0.00;99.90
23715;DHT22;12036;50.858;4.472;2023-03-01T07:43:04;0.10;99.90
23715;DHT22;12036;50.858;4.472;2023-03-01T07:45:29;0.10;99.90
23715;DHT22;12036;50.858;4.472;2023-03-01T07:47:55;0.30;99.90
23715;DHT22;12036;50.858;4.472;2023-03-01T07:50:22;0.30;99.90
23715;DHT22;12036;50.858;4.472;2023-03-01T07:52:49;0.30;99.90
23715;DHT22;12036;50.858;4.472;2023-03-01T07:55:16;0.30;99.90
23715;DHT22;12036;50.858;4.472;2023-03-01T07:57:42;0.40;99.90
23715;DHT22;12036;50.858;4.472;2023-03-01T08:00:10;0.50;99.90
23715;DHT22;12036;50.858;4.472;2023-03-01T08:02:35;0.60;99.90
23715;DHT22;12036;50.858;4.472;2023-03-01T08:05:01;0.70;99.90
23715;DHT22;12036;50.858;4.472;2023-03-01T08:07:27;0.80;99.90
23715;DHT22;12036;50.858;4.472;2023-03-01T08:09:52;1.10;99.90
23715;DHT22;12036;50.858;4.472;2023-03-01T08:12:18;1.50;99.90
23715;DHT22;12036;50.858;4.472;2023-03-01T08:14:44;1.70;99.90
23715;DHT22;12036;50.858;4.472;2023-03-01T08:17:09;2.10;99.90
23715;DHT22;12036;50.858;4.472;2023-03-01T08:19:35;2.30;99.90
23715;DHT22;12036;50.858;4.472;2023-03-01T08:22:02;2.20;99.90
23715;DHT22;12036;50.858;4.472;2023-03-01T08:24:28;2.10;99.90
23715;DHT22;12036;50.858;4.472;2023-03-01T08:26:54;1.90;99.90
23715;DHT22;12036;50.858;4.472;2023-03-01T08:29:20;2.00;99.90
23715;DHT22;12036;50.858;4.472;2023-03-01T08:31:46;2.00;99.90
23715;DHT22;12036;50.858;4.472;2023-03-01T08:34:15;2.20;99.90
23715;DHT22;12036;50.858;4.472;2023-03-01T08:36:43;2.40;99.90
23715;DHT22;12036;50.858;4.472;2023-03-01T08:39:11;2.70;99.90
23715;DHT22;12036;50.858;4.472;2023-03-01T08:41:37;2.80;99.90
23715;DHT22;12036;50.858;4.472;2023-03-01T08:44:04;3.10;99.90
23715;DHT22;12036;50.858;4.472;2023-03-01T08:46:32;3.20;99.90
23715;DHT22;12036;50.858;4.472;2023-03-01T08:48:58;3.30;99.70
23715;DHT22;12036;50.858;4.472;2023-03-01T08:51:25;3.10;99.60
23715;DHT22;12036;50.858;4.472;2023-03-01T08:53:52;3.00;99.90
23715;DHT22;12036;50.858;4.472;2023-03-01T08:56:18;3.00;99.90
23715;DHT22;12036;50.858;4.472;2023-03-01T08:58:46;2.90;99.90
23715;DHT22;12036;50.858;4.472;2023-03-01T09:01:14;2.90;99.90
23715;DHT22;12036;50.858;4.472;2023-03-01T09:03:40;3.00;99.90
23715;DHT22;12036;50.858;4.472;2023-03-01T09:06:07;3.20;99.70
23715;DHT22;12036;50.858;4.472;2023-03-01T09:08:41;3.20;99.20
23715;DHT22;12036;50.858;4.472;2023-03-01T09:11:09;3.30;99.50
23715;DHT22;12036;50.858;4.472;2023-03-01T09:13:35;3.30;99.50
23715;DHT22;12036;50.858;4.472;2023-03-01T09:16:03;3.40;99.20
23715;DHT22;12036;50.858;4.472;2023-03-01T09:18:29;3.30;99.10
23715;DHT22;12036;50.858;4.472;2023-03-01T09:21:09;3.30;99.30
23715;DHT22;12036;50.858;4.472;2023-03-01T09:23:36;3.20;99.50
23715;DHT22;12036;50.858;4.472;2023-03-01T09:26:02;3.30;99.60
23715;DHT22;12036;50.858;4.472;2023-03-01T09:28:28;3.60;99.00
23715;DHT22;12036;50.858;4.472;2023-03-01T09:30:58;3.60;98.60
23715;DHT22;12036;50.858;4.472;2023-03-01T09:33:23;3.60;98.40
23715;DHT22;12036;50.858;4.472;2023-03-01T09:35:49;3.70;98.30
23715;DHT22;12036;50.858;4.472;2023-03-01T09:38:15;3.80;98.30
23715;DHT22;12036;50.858;4.472;2023-03-01T09:40:44;3.80;98.50
23715;DHT22;12036;50.858;4.472;2023-03-01T09:45:59;4.00;97.80
23715;DHT22;12036;50.858;4.472;2023-03-01T09:48:33;4.00;96.60
23715;DHT22;12036;50.858;4.472;2023-03-01T09:51:07;4.00;96.80
23715;DHT22;12036;50.858;4.472;2023-03-01T09:53:34;4.00;96.40
23715;DHT22;12036;50.858;4.472;2023-03-01T10:04:32;4.40;95.30
23715;DHT22;12036;50.858;4.472;2023-03-01T10:09:37;4.80;95.10
23715;DHT22;12036;50.858;4.472;2023-03-01T10:12:18;4.90;94.40
23715;DHT22;12036;50.858;4.472;2023-03-01T10:15:12;4.90;94.10
23715;DHT22;12036;50.858;4.472;2023-03-01T10:22:46;5.00;92.20
23715;DHT22;12036;50.858;4.472;2023-03-01T10:27:54;5.00;92.00
23715;DHT22;12036;50.858;4.472;2023-03-01T10:32:53;4.80;92.30
23715;DHT22;12036;50.858;4.472;2023-03-01T10:35:25;4.70;92.60
23715;DHT22;12036;50.858;4.472;2023-03-01T10:40:23;4.90;92.80
23715;DHT22;12036;50.858;4.472;2023-03-01T10:42:49;5.20;91.80
23715;DHT22;12036;50.858;4.472;2023-03-01T10:50:31;5.40;89.40
23715;DHT22;12036;50.858;4.472;2023-03-01T10:53:02;5.50;89.70
23715;DHT22;12036;50.858;4.472;2023-03-01T10:55:39;5.60;88.10
23715;DHT22;12036;50.858;4.472;2023-03-01T11:00:52;5.60;87.40
23715;DHT22;12036;50.858;4.472;2023-03-01T11:03:33;5.70;86.00
23715;DHT22;12036;50.858;4.472;2023-03-01T11:06:03;5.80;85.40
23715;DHT22;12036;50.858;4.472;2023-03-01T11:08:41;5.80;85.10
23715;DHT22;12036;50.858;4.472;2023-03-01T11:21:36;6.00;83.90
23715;DHT22;12036;50.858;4.472;2023-03-01T11:24:05;6.10;80.40
23715;DHT22;12036;50.858;4.472;2023-03-01T11:26:37;6.10;81.30
23715;DHT22;12036;50.858;4.472;2023-03-01T11:29:11;6.30;81.10
23715;DHT22;12036;50.858;4.472;2023-03-01T11:31:39;6.30;78.60
23715;DHT22;12036;50.858;4.472;2023-03-01T11:34:17;6.40;79.00
23715;DHT22;12036;50.858;4.472;2023-03-01T11:36:58;6.40;80.00
23715;DHT22;12036;50.858;4.472;2023-03-01T11:39:59;6.80;78.90
23715;DHT22;12036;50.858;4.472;2023-03-01T11:45:12;8.20;70.30
23715;DHT22;12036;50.858;4.472;2023-03-01T11:50:50;9.10;65.80
23715;DHT22;12036;50.858;4.472;2023-03-01T11:55:57;9.60;61.40
23715;DHT22;12036;50.858;4.472;2023-03-01T11:58:53;9.50;60.40
23715;DHT22;12036;50.858;4.472;2023-03-01T12:15:31;7.90;62.40
23715;DHT22;12036;50.858;4.472;2023-03-01T12:24:20;7.40;63.30
23715;DHT22;12036;50.858;4.472;2023-03-01T12:30:05;7.60;61.90
23715;DHT22;12036;50.858;4.472;2023-03-01T12:40:30;7.90;64.20
23715;DHT22;12036;50.858;4.472;2023-03-01T12:50:59;8.20;62.30
23715;DHT22;12036;50.858;4.472;2023-03-01T12:53:34;8.40;62.00
23715;DHT22;12036;50.858;4.472;2023-03-01T12:56:04;8.30;60.50
23715;DHT22;12036;50.858;4.472;2023-03-01T13:09:41;8.30;60.00
23715;DHT22;12036;50.858;4.472;2023-03-01T13:15:32;8.40;60.60
23715;DHT22;12036;50.858;4.472;2023-03-01T13:28:37;8.50;60.20
23715;DHT22;12036;50.858;4.472;2023-03-01T13:31:05;8.60;59.10
23715;DHT22;12036;50.858;4.472;2023-03-01T13:36:00;8.50;59.10
23715;DHT22;12036;50.858;4.472;2023-03-01T13:38:39;8.50;59.40
23715;DHT22;12036;50.858;4.472;2023-03-01T13:41:10;8.50;59.00
23715;DHT22;12036;50.858;4.472;2023-03-01T13:43:37;8.60;59.10
23715;DHT22;12036;50.858;4.472;2023-03-01T13:46:19;8.70;58.70
23715;DHT22;12036;50.858;4.472;2023-03-01T13:48:45;8.80;58.20
23715;DHT22;12036;50.858;4.472;2023-03-01T13:51:13;8.80;57.60
23715;DHT22;12036;50.858;4.472;2023-03-01T13:53:44;8.70;58.70
23715;DHT22;12036;50.858;4.472;2023-03-01T13:59:04;8.20;60.40
23715;DHT22;12036;50.858;4.472;2023-03-01T14:01:33;8.30;59.20
23715;DHT22;12036;50.858;4.472;2023-03-01T14:03:59;8.40;59.00
23715;DHT22;12036;50.858;4.472;2023-03-01T14:06:27;8.50;59.10
23715;DHT22;12036;50.858;4.472;2023-03-01T14:19:48;8.60;58.60
23715;DHT22;12036;50.858;4.472;2023-03-01T14:24:59;8.70;58.50
23715;DHT22;12036;50.858;4.472;2023-03-01T14:27:32;8.80;58.60
23715;DHT22;12036;50.858;4.472;2023-03-01T14:30:10;8.70;58.80
23715;DHT22;12036;50.858;4.472;2023-03-01T14:32:38;8.70;58.90
23715;DHT22;12036;50.858;4.472;2023-03-01T14:35:21;8.80;58.40
23715;DHT22;12036;50.858;4.472;2023-03-01T14:37:46;8.90;58.40
23715;DHT22;12036;50.858;4.472;2023-03-01T14:40:28;8.90;58.20
23715;DHT22;12036;50.858;4.472;2023-03-01T14:42:56;8.80;58.50
23715;DHT22;12036;50.858;4.472;2023-03-01T14:45:25;8.90;58.60
23715;DHT22;12036;50.858;4.472;2023-03-01T14:47:51;8.80;58.20
23715;DHT22;12036;50.858;4.472;2023-03-01T14:52:55;8.80;57.30
23715;DHT22;12036;50.858;4.472;2023-03-01T14:55:35;8.80;57.70
23715;DHT22;12036;50.858;4.472;2023-03-01T14:58:06;8.90;58.10
23715;DHT22;12036;50.858;4.472;2023-03-01T15:00:35;8.90;57.80
23715;DHT22;12036;50.858;4.472;2023-03-01T15:03:07;8.90;58.30
23715;DHT22;12036;50.858;4.472;2023-03-01T15:05:39;8.80;58.00
23715;DHT22;12036;50.858;4.472;2023-03-01T15:08:06;8.70;58.40
23715;DHT22;12036;50.858;4.472;2023-03-01T15:10:34;8.80;58.10
23715;DHT22;12036;50.858;4.472;2023-03-01T15:13:20;8.80;58.20
23715;DHT22;12036;50.858;4.472;2023-03-01T15:15:48;8.70;58.00
23715;DHT22;12036;50.858;4.472;2023-03-01T15:18:25;8.70;58.00
23715;DHT22;12036;50.858;4.472;2023-03-01T15:20:52;8.70;58.00
23715;DHT22;12036;50.858;4.472;2023-03-01T15:23:25;8.60;58.60
23715;DHT22;12036;50.858;4.472;2023-03-01T15:25:53;8.60;58.50
23715;DHT22;12036;50.858;4.472;2023-03-01T15:28:27;8.50;59.30
23715;DHT22;12036;50.858;4.472;2023-03-01T15:31:20;8.50;59.20
23715;DHT22;12036;50.858;4.472;2023-03-01T15:33:47;8.50;59.60
23715;DHT22;12036;50.858;4.472;2023-03-01T15:36:38;8.40;59.10
23715;DHT22;12036;50.858;4.472;2023-03-01T15:39:04;8.50;58.60
23715;DHT22;12036;50.858;4.472;2023-03-01T15:41:37;8.50;58.50
23715;DHT22;12036;50.858;4.472;2023-03-01T15:44:17;8.60;58.70
23715;DHT22;12036;50.858;4.472;2023-03-01T15:46:48;8.50;58.90
23715;DHT22;12036;50.858;4.472;2023-03-01T15:49:39;8.50;59.00
23715;DHT22;12036;50.858;4.472;2023-03-01T15:52:08;8.30;59.50
23715;DHT22;12036;50.858;4.472;2023-03-01T15:54:36;8.20;59.70
23715;DHT22;12036;50.858;4.472;2023-03-01T15:57:03;8.20;60.00
23715;DHT22;12036;50.858;4.472;2023-03-01T15:59:29;8.20;60.50
23715;DHT22;12036;50.858;4.472;2023-03-01T16:01:54;8.20;60.90
23715;DHT22;12036;50.858;4.472;2023-03-01T16:04:20;8.10;60.90
23715;DHT22;12036;50.858;4.472;2023-03-01T16:06:53;8.10;59.00
23715;DHT22;12036;50.858;4.472;2023-03-01T16:09:23;8.20;58.40
23715;DHT22;12036;50.858;4.472;2023-03-01T16:11:50;8.20;58.60
23715;DHT22;12036;50.858;4.472;2023-03-01T16:14:16;8.20;58.40
23715;DHT22;12036;50.858;4.472;2023-03-01T16:16:43;8.30;58.20
23715;DHT22;12036;50.858;4.472;2023-03-01T16:19:09;8.20;58.50
23715;DHT22;12036;50.858;4.472;2023-03-01T16:21:35;8.10;58.80
23715;DHT22;12036;50.858;4.472;2023-03-01T16:24:01;8.00;59.30
23715;DHT22;12036;50.858;4.472;2023-03-01T16:26:27;7.90;59.70
23715;DHT22;12036;50.858;4.472;2023-03-01T16:28:56;7.80;59.40
23715;DHT22;12036;50.858;4.472;2023-03-01T16:31:23;7.70;59.60
23715;DHT22;12036;50.858;4.472;2023-03-01T16:33:53;7.70;59.60
23715;DHT22;12036;50.858;4.472;2023-03-01T16:36:20;7.60;59.70
23715;DHT22;12036;50.858;4.472;2023-03-01T16:38:46;7.50;60.00
23715;DHT22;12036;50.858;4.472;2023-03-01T16:41:15;7.50;60.00
23715;DHT22;12036;50.858;4.472;2023-03-01T16:43:41;7.60;59.80
23715;DHT22;12036;50.858;4.472;2023-03-01T16:46:16;7.60;59.60
23715;DHT22;12036;50.858;4.472;2023-03-01T16:48:41;7.30;60.40
23715;DHT22;12036;50.858;4.472;2023-03-01T16:51:08;7.40;60.70
23715;DHT22;12036;50.858;4.472;2023-03-01T16:53:34;7.20;61.00
23715;DHT22;12036;50.858;4.472;2023-03-01T16:56:06;7.20;61.60
23715;DHT22;12036;50.858;4.472;2023-03-01T16:58:33;7.10;61.80
23715;DHT22;12036;50.858;4.472;2023-03-01T17:01:04;7.10;62.30
23715;DHT22;12036;50.858;4.472;2023-03-01T17:03:31;7.10;62.40
23715;DHT22;12036;50.858;4.472;2023-03-01T17:05:56;7.10;62.10
23715;DHT22;12036;50.858;4.472;2023-03-01T17:08:22;6.90;62.80
23715;DHT22;12036;50.858;4.472;2023-03-01T17:10:47;6.80;63.80
23715;DHT22;12036;50.858;4.472;2023-03-01T17:13:13;6.70;64.80
23715;DHT22;12036;50.858;4.472;2023-03-01T17:15:41;6.70;64.90
23715;DHT22;12036;50.858;4.472;2023-03-01T17:18:07;6.70;65.10
23715;DHT22;12036;50.858;4.472;2023-03-01T17:20:33;6.50;65.70
23715;DHT22;12036;50.858;4.472;2023-03-01T17:22:59;6.40;66.50
23715;DHT22;12036;50.858;4.472;2023-03-01T17:25:25;6.30;67.30
23715;DHT22;12036;50.858;4.472;2023-03-01T17:27:50;6.30;68.00
23715;DHT22;12036;50.858;4.472;2023-03-01T17:30:16;6.10;68.70
23715;DHT22;12036;50.858;4.472;2023-03-01T17:32:42;6.20;69.40
23715;DHT22;12036;50.858;4.472;2023-03-01T17:35:08;6.10;70.10
23715;DHT22;12036;50.858;4.472;2023-03-01T17:37:36;6.00;70.60
23715;DHT22;12036;50.858;4.472;2023-03-01T17:40:04;6.10;70.70
23715;DHT22;12036;50.858;4.472;2023-03-01T17:42:31;6.00;70.80
23715;DHT22;12036;50.858;4.472;2023-03-01T17:44:56;5.90;71.20
23715;DHT22;12036;50.858;4.472;2023-03-01T17:47:22;5.80;72.10
23715;DHT22;12036;50.858;4.472;2023-03-01T17:49:48;5.80;72.20
23715;DHT22;12036;50.858;4.472;2023-03-01T17:52:14;5.60;72.70
23715;DHT22;12036;50.858;4.472;2023-03-01T17:54:40;5.60;73.50
23715;DHT22;12036;50.858;4.472;2023-03-01T17:57:05;5.50;73.70
23715;DHT22;12036;50.858;4.472;2023-03-01T17:59:31;5.50;74.30
23715;DHT22;12036;50.858;4.472;2023-03-01T18:01:58;5.40;75.00
23715;DHT22;12036;50.858;4.472;2023-03-01T18:04:26;5.30;75.40
23715;DHT22;12036;50.858;4.472;2023-03-01T18:06:52;5.10;76.20
23715;DHT22;12036;50.858;4.472;2023-03-01T18:09:17;5.10;77.10
23715;DHT22;12036;50.858;4.472;2023-03-01T18:11:43;5.20;77.20
23715;DHT22;12036;50.858;4.472;2023-03-01T18:14:09;5.20;77.30
23715;DHT22;12036;50.858;4.472;2023-03-01T18:16:35;5.20;77.30
23715;DHT22;12036;50.858;4.472;2023-03-01T18:19:01;5.10;77.50